Time;durP1;ratioP1;P1;durP2;ratioP2;P2;SDS_P1;SDS_P2;PMS_P1;PMS_P2;Temp;Humidity;BMP_temperature;BMP_pressure;BME280_temperature;BME280_humidity;BME280_pressure;Samples;Min_cycle;Max_cycle;Signal;HPM_P1;HPM_P2
2021/10/30 00:01:20;;;;;;;33.03;22.87;;;;;;;7.86;85.52;101460.25;5056517;28;20534;-61
2021/10/30 00:03:45;;;;;;;32.57;22.80;;;;;;;7.91;85.92;101468.66;5056619;28;20041;-61
2021/10/30 00:06:11;;;;;;;33.60;23.60;;;;;;;7.89;85.57;101467.94;5055667;28;20114;-59
2021/10/30 00:08:36;;;;;;;28.93;22.93;;;;;;;7.89;85.70;101466.13;5055956;28;20048;-60
2021/10/30 00:11:02;;;;;;;39.67;25.23;;;;;;;7.81;85.28;101454.50;5056619;28;20498;-61
2021/10/30 00:13:28;;;;;;;36.57;25.53;;;;;;;7.83;85.81;101468.47;5021689;28;20048;-60
2021/10/30 00:15:58;;;;;;;34.77;24.53;;;;;;;7.83;85.55;101466.66;5055408;28;20076;-61
2021/10/30 00:18:24;;;;;;;35.47;24.63;;;;;;;7.72;85.86;101456.06;5055910;28;20068;-61
2021/10/30 00:20:49;;;;;;;29.83;22.40;;;;;;;7.77;86.11;101460.03;5037381;28;20079;-61
2021/10/30 00:23:15;;;;;;;32.03;23.07;;;;;;;7.80;85.75;101463.38;5055382;28;20120;-61
2021/10/30 00:25:41;;;;;;;34.30;23.03;;;;;;;7.76;85.64;101461.00;5055869;28;20056;-60
2021/10/30 00:28:06;;;;;;;32.63;23.50;;;;;;;7.57;86.06;101429.03;5057095;28;20040;-60
2021/10/30 00:30:32;;;;;;;29.33;22.10;;;;;;;7.80;85.55;101461.56;5056065;28;20118;-60
2021/10/30 00:32:57;;;;;;;29.13;22.23;;;;;;;7.83;85.63;101450.75;5056648;28;20090;-61
2021/10/30 00:35:23;;;;;;;31.40;21.90;;;;;;;7.85;85.22;101446.16;5038060;28;20040;-60
2021/10/30 00:37:51;;;;;;;26.63;21.17;;;;;;;7.94;85.87;101460.44;5056313;28;20060;-61
2021/10/30 00:40:17;;;;;;;29.58;21.42;;;;;;;7.86;85.46;101444.34;5057902;28;20040;-61
2021/10/30 00:42:42;;;;;;;28.77;21.17;;;;;;;7.90;85.37;101451.91;5055790;28;20526;-60
2021/10/30 00:45:08;;;;;;;29.43;21.17;;;;;;;7.89;85.46;101449.38;5036841;28;20029;-60
2021/10/30 00:47:34;;;;;;;32.63;22.00;;;;;;;7.87;85.49;101446.03;5054758;28;20044;-60
2021/10/30 00:50:01;;;;;;;30.47;20.97;;;;;;;7.78;85.94;101443.13;5054667;28;20032;-61
2021/10/30 00:52:29;;;;;;;;;;;;;;;7.84;85.42;101443.63;5053588;28;20044;-61
2021/10/30 00:54:58;;;;;;;28.63;21.03;;;;;;;7.83;85.58;101444.59;5054689;28;19944;-60
2021/10/30 00:57:25;;;;;;;31.85;22.10;;;;;;;7.71;86.11;101418.13;5054467;28;20028;-60
2021/10/30 00:59:51;;;;;;;27.83;20.60;;;;;;;7.76;85.44;101433.63;5054531;28;20040;-59
2021/10/30 01:02:17;;;;;;;30.30;20.90;;;;;;;7.70;86.00;101418.25;5054389;28;20032;-59
2021/10/30 01:04:43;;;;;;;29.83;21.90;;;;;;;7.72;85.54;101419.78;5055018;28;20033;-60
2021/10/30 01:07:09;;;;;;;29.00;21.50;;;;;;;7.68;86.04;101420.19;5054244;28;20051;-60
2021/10/30 01:09:34;;;;;;;29.10;20.83;;;;;;;7.63;85.64;101404.66;5054216;28;20064;-62
2021/10/30 01:12:01;;;;;;;26.23;20.20;;;;;;;7.60;86.01;101414.69;5054068;28;20036;-61
2021/10/30 01:14:28;;;;;;;30.43;21.70;;;;;;;7.66;86.13;101428.28;5054159;28;20041;-62
2021/10/30 01:17:05;;;;;;;32.50;23.40;;;;;;;7.62;86.74;101416.25;5019697;28;20569;-60
2021/10/30 01:19:32;;;;;;;30.83;21.67;;;;;;;7.62;86.21;101410.94;5054685;28;20052;-61
2021/10/30 01:21:59;;;;;;;28.30;20.40;;;;;;;7.67;85.70;101419.34;5052838;28;20336;-61
2021/10/30 01:24:24;;;;;;;27.83;20.17;;;;;;;7.64;86.20;101419.59;5053976;28;20044;-61
2021/10/30 01:26:50;;;;;;;29.90;21.13;;;;;;;7.68;85.86;101428.13;5053891;28;20035;-60
2021/10/30 01:29:17;;;;;;;29.63;22.13;;;;;;;7.61;86.18;101409.25;5054066;28;20040;-60
2021/10/30 01:31:42;;;;;;;32.20;20.77;;;;;;;7.59;85.89;101407.72;5053727;28;20041;-62
2021/10/30 01:34:09;;;;;;;28.90;21.60;;;;;;;7.59;85.97;101413.84;5053785;28;20090;-61
2021/10/30 01:36:35;;;;;;;38.93;24.90;;;;;;;7.54;86.27;101408.09;5053717;28;20492;-62
2021/10/30 01:39:04;;;;;;;29.43;21.23;;;;;;;7.55;86.92;101412.44;5035654;28;20049;-61
2021/10/30 01:41:32;;;;;;;31.37;22.00;;;;;;;7.59;86.97;101403.25;5053815;28;20079;-61
2021/10/30 01:43:58;;;;;;;32.97;22.13;;;;;;;7.54;86.16;101388.69;5053440;28;20041;-60
2021/10/30 01:46:25;;;;;;;32.53;24.17;;;;;;;7.67;86.35;101403.44;5035829;28;20132;-61
2021/10/30 01:48:52;;;;;;;29.90;22.20;;;;;;;7.67;86.14;101406.09;5053421;28;20033;-61
2021/10/30 01:51:19;;;;;;;31.30;22.53;;;;;;;7.59;86.22;101405.06;5054041;28;20086;-61
2021/10/30 01:53:45;;;;;;;34.10;23.00;;;;;;;7.58;85.89;101411.31;5052625;28;20040;-61
2021/10/30 01:56:14;;;;;;;31.30;22.37;;;;;;;7.58;85.95;101414.81;5037354;28;20041;-61
2021/10/30 01:58:39;;;;;;;35.28;22.42;;;;;;;7.54;85.81;101421.34;5053096;28;20033;-61
2021/10/30 02:01:07;;;;;;;30.90;21.17;;;;;;;7.32;86.15;101386.97;5053179;28;20522;-63
2021/10/30 02:03:34;;;;;;;28.85;21.48;;;;;;;7.55;86.85;101424.84;5053484;28;20575;-60
2021/10/30 02:06:02;;;;;;;36.33;22.57;;;;;;;7.49;86.65;101415.56;5054449;28;20395;-60
2021/10/30 02:08:29;;;;;;;32.72;22.98;;;;;;;7.53;86.58;101426.78;5053410;28;20044;-60
2021/10/30 02:10:55;;;;;;;30.77;21.40;;;;;;;7.57;86.40;101428.19;5053283;28;20110;-61
2021/10/30 02:13:22;;;;;;;32.97;23.23;;;;;;;7.47;86.15;101406.91;5053863;28;20040;-61
2021/10/30 02:15:48;;;;;;;31.07;23.73;;;;;;;7.33;85.87;101384.19;5054055;28;20111;-61
2021/10/30 02:18:14;;;;;;;36.57;21.83;;;;;;;7.51;86.02;101418.06;5053208;28;20037;-60
2021/10/30 02:20:40;;;;;;;32.40;24.77;;;;;;;7.50;86.55;101421.69;5052800;28;20041;-60
2021/10/30 02:23:06;;;;;;;30.63;23.00;;;;;;;7.55;86.01;101435.44;5052783;28;20037;-61
2021/10/30 02:25:32;;;;;;;30.30;21.67;;;;;;;7.45;86.11;101424.72;5052871;28;20040;-61
2021/10/30 02:27:57;;;;;;;27.50;21.17;;;;;;;7.35;86.03;101411.41;5052830;28;20404;-60
2021/10/30 02:30:23;;;;;;;33.37;21.67;;;;;;;7.41;86.92;101426.78;5052877;28;20044;-61
2021/10/30 02:32:50;;;;;;;31.67;22.30;;;;;;;7.44;86.64;101438.94;5052917;28;20167;-61
2021/10/30 02:35:15;;;;;;;33.87;25.33;;;;;;;7.37;86.67;101427.19;5052646;28;20033;-60
2021/10/30 02:37:41;;;;;;;33.47;22.43;;;;;;;7.45;86.29;101437.97;5052326;28;20044;-61
2021/10/30 02:40:08;;;;;;;31.90;23.13;;;;;;;7.47;86.87;101433.41;5034645;28;20041;-60
2021/10/30 02:42:34;;;;;;;32.63;23.07;;;;;;;7.43;86.14;101427.50;5052425;28;20049;-61
2021/10/30 02:45:00;;;;;;;29.73;21.73;;;;;;;7.51;86.18;101437.47;5052443;28;20040;-60
2021/10/30 02:47:27;;;;;;;30.37;22.13;;;;;;;7.53;85.55;101432.06;5052638;28;20052;-60
2021/10/30 02:49:52;;;;;;;28.30;21.57;;;;;;;7.56;86.17;101431.81;5052581;28;20036;-61
2021/10/30 02:52:18;;;;;;;27.77;21.63;;;;;;;7.60;86.02;101428.78;5050996;28;20063;-60
2021/10/30 02:54:43;;;;;;;29.10;20.63;;;;;;;7.69;85.16;101438.63;5034357;28;20033;-60
2021/10/30 02:57:09;;;;;;;31.50;21.63;;;;;;;7.68;84.63;101433.44;5052198;28;20507;-61
2021/10/30 02:59:34;;;;;;;29.07;22.30;;;;;;;7.79;84.33;101436.03;5052324;28;20113;-61
2021/10/30 03:02:00;;;;;;;32.33;20.67;;;;;;;7.93;83.76;101449.00;5034498;28;20458;-62
2021/10/30 03:04:25;;;;;;;29.33;20.50;;;;;;;8.05;83.23;101441.81;5052360;28;20037;-61
2021/10/30 03:06:51;;;;;;;30.90;20.67;;;;;;;8.12;82.98;101450.94;5052414;28;20067;-61
2021/10/30 03:09:17;;;;;;;30.93;21.43;;;;;;;8.08;83.07;101425.63;5052178;28;20052;-59
2021/10/30 03:11:42;;;;;;;33.47;22.47;;;;;;;8.20;82.54;101444.97;5051699;28;20056;-61
2021/10/30 03:14:08;;;;;;;26.93;20.80;;;;;;;8.18;82.99;101431.00;5033917;28;20086;-62
2021/10/30 03:16:33;;;;;;;31.47;21.80;;;;;;;8.03;82.44;101407.44;5051806;28;20479;-60
2021/10/30 03:18:59;;;;;;;31.53;21.43;;;;;;;8.23;82.13;101432.28;5052113;28;20388;-62
2021/10/30 03:21:24;;;;;;;29.40;23.00;;;;;;;8.28;82.23;101446.00;5051956;28;20388;-60
2021/10/30 03:23:50;;;;;;;25.43;19.40;;;;;;;8.34;82.01;101455.28;5051868;28;20167;-61
2021/10/30 03:26:15;;;;;;;29.97;19.27;;;;;;;8.42;82.03;101459.94;5051710;28;20035;-60
2021/10/30 03:28:41;;;;;;;30.17;22.87;;;;;;;8.39;82.11;101453.09;5050724;28;20037;-59
2021/10/30 03:31:06;;;;;;;30.50;20.33;;;;;;;8.33;81.78;101443.81;5051954;28;20036;-60
2021/10/30 03:33:32;;;;;;;23.97;19.07;;;;;;;8.41;81.78;101456.47;5051912;28;20036;-60
2021/10/30 03:35:58;;;;;;;32.07;21.43;;;;;;;8.25;81.95;101430.34;5051791;28;20032;-63
2021/10/30 03:38:24;;;;;;;29.73;21.70;;;;;;;8.49;81.29;101469.06;5033814;28;20508;-61
2021/10/30 03:40:49;;;;;;;27.83;21.53;;;;;;;8.52;81.67;101471.44;5033482;28;20041;-61
2021/10/30 03:43:15;;;;;;;27.83;20.23;;;;;;;8.58;80.94;101474.41;5033757;28;20033;-60
2021/10/30 03:45:40;;;;;;;29.33;20.73;;;;;;;8.38;81.15;101431.03;5051711;28;20036;-60
2021/10/30 03:48:10;;;;;;;28.67;22.23;;;;;;;8.61;80.74;101468.00;5051898;28;20033;-61
2021/10/30 03:50:37;;;;;;;29.70;22.57;;;;;;;8.64;80.26;101470.38;5051660;28;20029;-59
2021/10/30 03:53:03;;;;;;;31.13;23.47;;;;;;;8.36;80.12;101416.16;5033729;28;20033;-61
2021/10/30 03:55:30;;;;;;;29.50;23.83;;;;;;;8.65;80.28;101467.59;5051807;28;20122;-60
2021/10/30 03:57:55;;;;;;;28.27;21.70;;;;;;;8.67;79.83;101457.72;5051572;28;20089;-60
2021/10/30 04:00:21;;;;;;;30.20;22.73;;;;;;;8.74;79.99;101479.25;5051671;28;20178;-61
2021/10/30 04:02:46;;;;;;;26.13;20.47;;;;;;;8.75;79.76;101470.31;5051915;28;20029;-59
2021/10/30 04:05:12;;;;;;;28.77;23.13;;;;;;;8.60;79.91;101439.75;5051434;28;20040;-61
2021/10/30 04:07:38;;;;;;;31.23;22.07;;;;;;;8.78;79.71;101462.06;5051578;28;20083;-61
2021/10/30 04:10:04;;;;;;;28.47;22.63;;;;;;;8.72;80.31;101459.97;5051650;28;20123;-63
2021/10/30 04:12:30;;;;;;;28.50;21.07;;;;;;;8.62;79.72;101440.47;5051653;28;20037;-61
2021/10/30 04:14:55;;;;;;;29.50;22.53;;;;;;;8.81;79.34;101461.81;5051588;28;20377;-62
2021/10/30 04:17:21;;;;;;;31.97;22.50;;;;;;;8.59;79.85;101422.16;5051602;28;20088;-61
2021/10/30 04:19:46;;;;;;;30.13;21.27;;;;;;;8.75;79.51;101442.91;5051489;28;20068;-61
2021/10/30 04:22:12;;;;;;;36.07;23.20;;;;;;;8.82;79.53;101460.81;5051284;28;20036;-61
2021/10/30 04:24:37;;;;;;;31.73;24.13;;;;;;;8.71;79.47;101452.13;5051062;28;20037;-62
2021/10/30 04:27:03;;;;;;;29.90;23.23;;;;;;;8.84;79.27;101466.00;5054106;28;20041;-62
2021/10/30 04:29:29;;;;;;;31.67;24.50;;;;;;;8.82;79.57;101455.50;5053894;28;20057;-60
2021/10/30 04:31:57;;;;;;;31.27;22.57;;;;;;;8.75;79.27;101456.19;5037634;28;20064;-60
2021/10/30 04:34:33;;;;;;;28.80;21.77;;;;;;;8.80;79.69;101464.59;5037700;28;20045;-61
2021/10/30 04:36:58;;;;;;;33.53;23.43;;;;;;;8.71;79.58;101452.13;5054877;28;20136;-60
2021/10/30 04:39:25;;;;;;;32.93;23.67;;;;;;;8.80;79.46;101467.25;5054698;28;20151;-61
2021/10/30 04:41:50;;;;;;;32.33;23.33;;;;;;;8.81;78.95;101463.63;5054945;28;20460;-60
2021/10/30 04:44:16;;;;;;;30.33;22.97;;;;;;;8.79;79.41;101454.94;5037090;28;20088;-60
2021/10/30 04:46:43;;;;;;;32.00;25.23;;;;;;;8.80;79.07;101465.44;5054766;28;20052;-60
2021/10/30 04:49:08;;;;;;;30.03;22.90;;;;;;;8.81;78.95;101469.78;5054548;28;20037;-62
2021/10/30 04:51:34;;;;;;;31.80;23.70;;;;;;;8.85;78.63;101473.84;5054454;28;20403;-59
2021/10/30 04:53:59;;;;;;;31.67;23.47;;;;;;;8.81;78.88;101463.63;5036869;28;20041;-63
2021/10/30 04:56:25;;;;;;;31.37;23.63;;;;;;;8.86;78.59;101464.88;5054873;28;20503;-61
2021/10/30 04:58:51;;;;;;;29.70;23.30;;;;;;;8.71;78.56;101446.81;5054296;28;20072;-60
2021/10/30 05:01:17;;;;;;;32.10;23.83;;;;;;;8.84;78.07;101460.69;5036767;28;20140;-61
2021/10/30 05:03:44;;;;;;;31.40;24.87;;;;;;;8.79;77.32;101455.78;5036837;28;20040;-60
2021/10/30 05:06:11;;;;;;;34.93;25.70;;;;;;;8.82;76.85;101463.47;5036498;28;20037;-59
2021/10/30 05:08:37;;;;;;;30.57;23.73;;;;;;;8.69;77.48;101436.31;5054566;28;20080;-60
2021/10/30 05:11:03;;;;;;;37.30;23.63;;;;;;;8.92;76.81;101480.28;5054793;28;20060;-60
2021/10/30 05:13:28;;;;;;;31.27;23.70;;;;;;;8.40;76.22;101395.53;5054599;28;20037;-60
2021/10/30 05:15:54;;;;;;;32.07;22.17;;;;;;;8.90;76.27;101476.91;5054130;28;20033;-62
2021/10/30 05:18:20;;;;;;;31.90;23.77;;;;;;;8.90;76.44;101484.88;5054343;28;20025;-61
2021/10/30 05:20:45;;;;;;;32.60;24.03;;;;;;;8.83;77.04;101473.13;5036097;28;20032;-62
2021/10/30 05:23:11;;;;;;;30.43;24.27;;;;;;;8.88;77.19;101486.84;5053696;28;20083;-61
2021/10/30 05:25:36;;;;;;;44.33;25.00;;;;;;;8.84;77.24;101496.06;5036211;28;20068;-62
2021/10/30 05:28:01;;;;;;;27.83;23.70;;;;;;;8.84;76.99;101485.44;5053995;28;20095;-61
2021/10/30 05:30:27;;;;;;;31.83;24.47;;;;;;;8.78;77.61;101496.59;5054156;28;20468;-62
2021/10/30 05:32:53;;;;;;;33.63;24.37;;;;;;;8.76;77.54;101495.88;5054319;28;20045;-60
2021/10/30 05:35:18;;;;;;;33.57;25.13;;;;;;;8.80;77.34;101502.63;5035916;28;20396;-61
2021/10/30 05:37:44;;;;;;;34.87;24.70;;;;;;;8.69;77.56;101476.16;5035320;28;20098;-62
2021/10/30 05:40:11;;;;;;;31.17;23.93;;;;;;;8.79;77.99;101497.44;5053811;28;20069;-61
2021/10/30 05:42:39;;;;;;;28.37;21.57;;;;;;;8.58;78.29;101478.88;5054067;28;20052;-62
2021/10/30 05:45:06;;;;;;;33.90;23.00;;;;;;;8.63;78.31;101497.91;5053721;28;20041;-61
2021/10/30 05:47:36;;;;;;;35.10;25.40;;;;;;;8.67;78.87;101501.97;5054147;28;20048;-62
2021/10/30 05:50:03;;;;;;;32.87;22.30;;;;;;;8.69;78.69;101502.72;5036122;28;20029;-61
2021/10/30 05:52:28;;;;;;;29.53;22.37;;;;;;;8.64;78.14;101505.75;5053527;28;20044;-61
2021/10/30 05:54:54;;;;;;;31.83;23.57;;;;;;;8.57;77.47;101482.50;5052362;28;20037;-62
2021/10/30 05:57:19;;;;;;;31.20;21.97;;;;;;;8.55;77.14;101495.06;5034416;28;20045;-62
2021/10/30 05:59:46;;;;;;;27.53;21.80;;;;;;;8.61;76.70;101505.16;5050657;28;20089;-61
2021/10/30 06:02:12;;;;;;;27.93;20.77;;;;;;;8.56;76.24;101502.06;5053675;28;20123;-63
2021/10/30 06:04:41;;;;;;;28.47;22.17;;;;;;;8.61;76.66;101518.44;5052149;28;20053;-64
2021/10/30 06:07:08;;;;;;;36.97;23.07;;;;;;;8.64;77.12;101521.66;5016519;28;20116;-61
2021/10/30 06:09:33;;;;;;;34.30;21.50;;;;;;;8.61;76.17;101507.81;5016587;28;20045;-60
2021/10/30 06:11:59;;;;;;;34.23;23.40;;;;;;;8.69;75.54;101523.97;5033353;28;20405;-63
2021/10/30 06:14:25;;;;;;;31.67;21.37;;;;;;;8.66;75.56;101513.56;5016138;28;20044;-61
2021/10/30 06:16:51;;;;;;;30.50;23.57;;;;;;;8.72;76.33;101528.16;5015609;28;20025;-59
2021/10/30 06:19:17;;;;;;;30.73;23.13;;;;;;;8.57;75.67;101504.59;5031946;28;20033;-59
2021/10/30 06:21:42;;;;;;;25.97;21.00;;;;;;;8.80;75.21;101542.44;5032472;28;20485;-61
2021/10/30 06:24:08;;;;;;;31.87;22.60;;;;;;;8.66;75.38;101534.81;5032446;28;20029;-60
2021/10/30 06:26:34;;;;;;;32.00;23.43;;;;;;;8.69;75.57;101553.16;5032333;28;20048;-62
2021/10/30 06:28:59;;;;;;;29.60;22.20;;;;;;;8.67;75.12;101547.13;5032415;28;20067;-61
2021/10/30 06:31:25;;;;;;;29.53;21.47;;;;;;;8.21;74.89;101458.13;5014734;28;20430;-60
2021/10/30 06:33:50;;;;;;;27.53;21.20;;;;;;;8.76;75.09;101546.34;5032414;28;20143;-59
2021/10/30 06:36:16;;;;;;;32.73;22.90;;;;;;;8.72;73.97;101536.13;5032542;28;20068;-59
2021/10/30 06:38:43;;;;;;;28.70;21.33;;;;;;;8.60;74.30;101530.88;5032392;28;20053;-59
2021/10/30 06:41:11;;;;;;;28.30;21.33;;;;;;;8.70;74.29;101552.19;5014852;28;20526;-61
2021/10/30 06:43:37;;;;;;;;;;;;;;;8.77;74.24;101553.34;5033335;28;20041;-61
2021/10/30 06:46:03;;;;;;;30.27;21.40;;;;;;;8.77;74.62;101548.03;5031357;28;20466;-58
2021/10/30 06:48:28;;;;;;;26.97;20.37;;;;;;;8.72;74.38;101552.91;5014827;28;20037;-59
2021/10/30 06:50:54;;;;;;;30.17;21.53;;;;;;;8.77;74.63;101547.19;5031699;28;20029;-60
2021/10/30 06:53:20;;;;;;;30.30;22.03;;;;;;;8.81;74.58;101554.75;5032659;28;20038;-62
2021/10/30 06:55:48;;;;;;;32.27;22.37;;;;;;;8.87;74.80;101558.69;5032512;28;20124;-61
2021/10/30 06:58:16;;;;;;;27.90;20.65;;;;;;;8.83;73.97;101554.63;5032454;28;20037;-63
2021/10/30 07:00:42;;;;;;;29.83;21.70;;;;;;;8.85;73.92;101566.81;5031946;28;20045;-61
2021/10/30 07:03:08;;;;;;;28.83;21.53;;;;;;;8.82;74.23;101567.06;5030923;28;20086;-60
2021/10/30 07:05:34;;;;;;;28.00;20.90;;;;;;;8.30;73.78;101478.56;5032256;28;20042;-60
2021/10/30 07:07:59;;;;;;;27.70;20.63;;;;;;;8.75;74.19;101560.59;5032199;28;20029;-61
2021/10/30 07:10:25;;;;;;;30.10;20.57;;;;;;;8.81;74.24;101559.22;5032068;28;20025;-61
2021/10/30 07:12:50;;;;;;;24.70;19.33;;;;;;;8.87;73.93;101556.03;5031938;28;20542;-61
2021/10/30 07:15:16;;;;;;;29.73;21.90;;;;;;;8.87;72.70;101546.25;5031984;28;20404;-61
2021/10/30 07:17:42;;;;;;;32.20;21.23;;;;;;;8.95;73.22;101550.91;5031767;28;20136;-59
2021/10/30 07:20:09;;;;;;;28.53;19.77;;;;;;;8.97;72.47;101555.13;5032237;28;20083;-60
2021/10/30 07:22:44;;;;;;;29.77;20.10;;;;;;;9.07;72.73;101560.47;5031837;28;20049;-61
2021/10/30 07:25:11;;;;;;;28.20;19.50;;;;;;;8.99;72.36;101550.53;5031917;28;20408;-61
2021/10/30 07:27:37;;;;;;;27.90;19.57;;;;;;;9.00;72.81;101556.69;5031885;28;20088;-57
2021/10/30 07:30:07;;;;;;;29.10;21.47;;;;;;;9.03;72.33;101564.38;5031795;28;20037;-62
2021/10/30 07:32:35;;;;;;;29.50;21.70;;;;;;;9.06;72.48;101579.22;5032198;28;20042;-63
2021/10/30 07:35:02;;;;;;;28.60;21.40;;;;;;;8.96;72.42;101572.06;5032050;28;20123;-60
2021/10/30 07:37:28;;;;;;;28.97;22.07;;;;;;;8.89;72.26;101568.22;5031818;28;20044;-60
2021/10/30 07:39:54;;;;;;;26.57;21.10;;;;;;;8.60;72.97;101536.19;5013817;28;20049;-61
2021/10/30 07:42:19;;;;;;;28.87;20.30;;;;;;;8.90;72.86;101579.69;5031884;28;20041;-60
2021/10/30 07:44:45;;;;;;;29.43;20.37;;;;;;;9.03;73.09;101595.44;5031813;28;20080;-62
2021/10/30 07:47:11;;;;;;;26.57;20.33;;;;;;;9.11;72.70;101603.56;5031960;28;20160;-61
2021/10/30 07:49:38;;;;;;;28.73;20.50;;;;;;;9.10;72.15;101596.56;5031620;28;20030;-60
2021/10/30 07:52:05;;;;;;;25.47;19.93;;;;;;;9.11;72.13;101609.72;5031670;28;20033;-60
2021/10/30 07:54:32;;;;;;;27.17;18.63;;;;;;;9.13;72.53;101612.25;5031752;28;20033;-61
2021/10/30 07:56:58;;;;;;;27.83;19.73;;;;;;;9.18;72.50;101620.66;5031710;28;20041;-58
2021/10/30 07:59:24;;;;;;;28.37;20.83;;;;;;;9.18;70.63;101616.19;5031890;28;20091;-61
2021/10/30 08:01:52;;;;;;;25.93;19.70;;;;;;;9.13;71.15;101621.06;5034252;28;20048;-60
2021/10/30 08:04:18;;;;;;;30.57;21.73;;;;;;;9.10;71.60;101626.66;5036292;28;20408;-60
2021/10/30 08:06:44;;;;;;;26.03;21.13;;;;;;;9.12;71.67;101621.19;5037261;28;20042;-61
2021/10/30 08:09:10;;;;;;;26.50;19.03;;;;;;;9.09;71.40;101613.50;5036022;28;20087;-59
2021/10/30 08:11:35;;;;;;;28.00;20.37;;;;;;;9.13;72.11;101614.91;5035708;28;20488;-61
2021/10/30 08:14:03;;;;;;;27.77;20.77;;;;;;;9.17;71.75;101629.59;5018236;28;20037;-59
2021/10/30 08:16:30;;;;;;;28.42;19.83;;;;;;;8.89;71.77;101594.78;5037020;28;20033;-60
2021/10/30 08:18:57;;;;;;;29.47;20.60;;;;;;;8.97;72.04;101602.97;5040265;28;20041;-60
2021/10/30 08:21:23;;;;;;;26.07;19.10;;;;;;;9.00;71.77;101615.97;5040947;28;20041;-59
2021/10/30 08:23:49;;;;;;;27.70;20.83;;;;;;;8.92;71.37;101612.28;5040790;28;20125;-61
2021/10/30 08:26:17;;;;;;;25.03;18.93;;;;;;;8.85;71.93;101601.34;5038139;28;20041;-61
2021/10/30 08:28:44;;;;;;;24.60;19.37;;;;;;;9.03;71.62;101635.28;5038447;28;20051;-60
2021/10/30 08:31:10;;;;;;;30.63;19.40;;;;;;;8.98;71.86;101625.91;5017955;28;20033;-60
2021/10/30 08:33:35;;;;;;;25.90;19.40;;;;;;;9.09;72.35;101632.09;5035091;28;20064;-61
2021/10/30 08:36:02;;;;;;;25.97;18.70;;;;;;;8.73;71.70;101585.63;5034955;28;20113;-62
2021/10/30 08:38:28;;;;;;;24.27;18.87;;;;;;;9.07;72.18;101639.34;5034323;28;20077;-60
2021/10/30 08:40:57;;;;;;;25.00;19.67;;;;;;;9.14;71.64;101630.72;5034397;28;20585;-60
2021/10/30 08:43:25;;;;;;;28.50;19.63;;;;;;;9.20;71.42;101630.19;5034573;28;20488;-59
2021/10/30 08:45:51;;;;;;;29.17;19.52;;;;;;;9.29;71.40;101631.22;5034487;28;20071;-60
2021/10/30 08:48:28;;;;;;;24.23;17.43;;;;;;;9.31;71.21;101621.28;5034618;28;20045;-60
2021/10/30 08:50:54;;;;;;;27.07;19.30;;;;;;;9.37;71.19;101635.88;5034352;28;20033;-60
2021/10/30 08:53:21;;;;;;;25.40;17.70;;;;;;;9.39;70.80;101637.41;5034359;28;20044;-60
2021/10/30 08:55:48;;;;;;;29.83;18.37;;;;;;;9.34;71.31;101631.66;5016841;28;20043;-60
2021/10/30 08:58:15;;;;;;;24.77;17.90;;;;;;;9.37;70.70;101634.06;5034526;28;20481;-58
2021/10/30 09:00:46;;;;;;;26.50;17.50;;;;;;;9.33;70.87;101645.94;5016952;28;20188;-60
2021/10/30 09:03:14;;;;;;;23.87;17.53;;;;;;;9.27;71.44;101649.97;5033684;28;20041;-59
2021/10/30 09:05:43;;;;;;;23.30;18.03;;;;;;;9.05;70.77;101609.41;5034223;28;20044;-61
2021/10/30 09:08:09;;;;;;;24.33;18.90;;;;;;;9.00;71.05;101623.09;5034218;28;20037;-61
2021/10/30 09:10:37;;;;;;;25.23;18.03;;;;;;;9.22;70.65;101664.59;5034404;28;20042;-61
2021/10/30 09:13:05;;;;;;;22.55;17.40;;;;;;;9.15;71.06;101668.75;5033131;28;20095;-61
2021/10/30 09:15:30;;;;;;;26.67;17.17;;;;;;;9.15;71.06;101668.75;5034493;28;20033;-60
2021/10/30 09:17:56;;;;;;;25.27;18.70;;;;;;;9.11;70.82;101656.72;5034274;28;20037;-60
2021/10/30 09:20:30;;;;;;;24.17;19.80;;;;;;;9.07;71.16;101655.31;5033849;28;20550;-60
2021/10/30 09:22:56;;;;;;;24.30;19.30;;;;;;;9.10;71.05;101663.00;5034081;28;20123;-60
2021/10/30 09:25:21;;;;;;;26.10;20.40;;;;;;;9.17;71.54;101674.78;5034035;28;20125;-60
2021/10/30 09:27:57;;;;;;;25.40;18.97;;;;;;;9.21;70.84;101673.56;5036070;28;20033;-60
2021/10/30 09:30:35;;;;;;;24.17;18.90;;;;;;;9.14;70.83;101661.75;5034697;28;20038;-60
2021/10/30 09:33:04;;;;;;;28.13;19.37;;;;;;;9.17;71.20;101662.34;5034507;28;20451;-59
2021/10/30 09:35:43;;;;;;;28.02;20.83;;;;;;;9.14;71.15;101656.44;5017941;28;20393;-60
2021/10/30 09:38:11;;;;;;;29.80;20.87;;;;;;;9.13;71.33;101666.25;5033624;28;20136;-61
2021/10/30 09:40:37;;;;;;;28.40;21.27;;;;;;;9.06;70.67;101657.13;5033653;28;20049;-59
2021/10/30 09:43:08;;;;;;;29.77;20.70;;;;;;;9.11;70.82;101672.66;5034268;28;20562;-59
2021/10/30 09:45:37;;;;;;;34.47;21.93;;;;;;;9.04;70.60;101666.19;5033981;28;20040;-62
2021/10/30 09:48:03;;;;;;;29.30;20.60;;;;;;;8.95;70.53;101650.03;5034142;28;20060;-59
2021/10/30 09:50:31;;;;;;;28.23;19.63;;;;;;;9.14;70.79;101672.41;5033792;28;20124;-60
2021/10/30 09:52:57;;;;;;;29.87;21.10;;;;;;;9.14;70.82;101670.59;5033520;28;20453;-59
2021/10/30 09:55:27;;;;;;;32.17;20.83;;;;;;;9.05;70.40;101646.63;5033376;28;20120;-62
2021/10/30 09:58:04;;;;;;;31.50;22.37;;;;;;;9.20;70.70;101677.19;5033118;28;20041;-60
2021/10/30 10:00:30;;;;;;;29.37;21.00;;;;;;;9.16;71.12;101671.28;5033603;28;20036;-60
2021/10/30 10:02:58;;;;;;;28.50;19.97;;;;;;;9.10;70.77;101657.69;5033408;28;20090;-59
2021/10/30 10:05:27;;;;;;;27.88;20.33;;;;;;;9.19;71.54;101672.84;5033141;28;20439;-60
2021/10/30 10:07:54;;;;;;;28.52;17.80;;;;;;;9.22;70.34;101672.56;5033168;28;20041;-61
2021/10/30 10:10:21;;;;;;;30.53;18.60;;;;;;;9.20;70.43;101661.22;5015217;28;20428;-61
2021/10/30 10:12:49;;;;;;;23.87;17.50;;;;;;;8.92;69.89;101618.44;5032973;28;20029;-61
2021/10/30 10:15:15;;;;;;;23.30;17.47;;;;;;;9.14;70.71;101662.59;5033665;28;20520;-60
2021/10/30 10:17:43;;;;;;;26.83;18.33;;;;;;;8.95;71.34;101623.47;5033140;28;20040;-62
2021/10/30 10:20:10;;;;;;;26.70;17.53;;;;;;;9.18;70.86;101658.72;5015196;28;20427;-60
2021/10/30 10:22:38;;;;;;;23.53;17.20;;;;;;;9.15;70.81;101674.09;5033092;28;20034;-56
2021/10/30 10:25:24;;;;;;;22.90;16.80;;;;;;;9.20;71.24;101666.56;5032406;28;20033;-62
2021/10/30 10:27:49;;;;;;;23.50;16.07;;;;;;;9.16;70.67;101652.69;5032568;28;20041;-60
2021/10/30 10:30:15;;;;;;;23.43;16.23;;;;;;;9.24;70.47;101665.31;5032883;28;20029;-58
2021/10/30 10:32:40;;;;;;;24.57;15.10;;;;;;;9.20;69.86;101647.94;5032666;28;20080;-59
2021/10/30 10:35:13;;;;;;;20.43;15.57;;;;;;;9.21;69.95;101649.63;5032459;28;20037;-62
2021/10/30 10:37:51;;;;;;;24.77;16.57;;;;;;;9.03;70.53;101611.38;5032190;28;20124;-60
2021/10/30 10:40:32;;;;;;;22.43;15.90;;;;;;;9.29;70.83;101655.16;5032462;28;20095;-60
2021/10/30 10:42:58;;;;;;;22.10;15.70;;;;;;;9.12;70.04;101623.84;5032259;28;20044;-60
2021/10/30 10:45:43;;;;;;;24.67;15.83;;;;;;;9.25;69.88;101659.00;5032883;28;20045;-60
2021/10/30 10:48:09;;;;;;;23.23;16.00;;;;;;;9.30;69.87;101655.00;5032094;28;20044;-61
2021/10/30 10:50:37;;;;;;;26.93;16.90;;;;;;;9.38;70.19;101654.34;5032414;28;20041;-59
2021/10/30 10:53:07;;;;;;;24.23;15.90;;;;;;;9.30;69.80;101651.50;5032145;28;20045;-61
2021/10/30 10:55:37;;;;;;;27.77;17.43;;;;;;;9.38;70.07;101649.03;5030966;28;20038;-60
2021/10/30 10:58:07;;;;;;;24.23;16.90;;;;;;;9.41;69.99;101654.06;5032329;28;20040;-61
2021/10/30 11:00:33;;;;;;;23.13;17.23;;;;;;;9.41;70.12;101659.38;5032741;28;20071;-60
2021/10/30 11:03:00;;;;;;;22.27;17.83;;;;;;;9.39;70.08;101656.03;5032052;28;20065;-60
2021/10/30 11:05:28;;;;;;;27.73;18.17;;;;;;;9.39;69.93;101650.72;5031935;28;20064;-59
2021/10/30 11:07:54;;;;;;;29.08;18.55;;;;;;;9.45;68.89;101650.16;5032039;28;20033;-59
2021/10/30 11:10:26;;;;;;;23.13;15.83;;;;;;;9.46;69.36;101651.00;5014553;28;20420;-60
2021/10/30 11:12:58;;;;;;;23.00;15.27;;;;;;;9.52;68.53;101650.47;5032095;28;20051;-59
2021/10/30 11:15:25;;;;;;;22.00;16.23;;;;;;;9.49;68.78;101651.56;5031912;28;20120;-60